createdAt,value
2019-03-29T00:02:30.623Z,11.10
2019-03-29T00:05:20.155Z,10.78
2019-03-29T00:08:05.974Z,15.65
2019-03-29T00:10:51.974Z,11.33
2019-03-29T00:16:23.324Z,10.40
2019-03-29T00:19:09.363Z,11.10
2019-03-29T00:21:55.644Z,11.78
2019-03-29T00:24:41.476Z,11.70
2019-03-29T00:27:27.587Z,10.63
2019-03-29T00:30:13.384Z,11.20
2019-03-29T00:32:59.328Z,9.78
2019-03-29T00:38:34.301Z,9.63
2019-03-29T00:41:20.493Z,12.05
2019-03-29T00:44:06.453Z,11.15
2019-03-29T00:46:53.212Z,13.58
2019-03-29T00:49:39.254Z,11.88
2019-03-29T00:52:29.600Z,10.58
2019-03-29T00:55:16.219Z,13.70
2019-03-29T00:58:02.253Z,12.53
2019-03-29T01:00:48.720Z,12.63
2019-03-29T01:03:34.524Z,13.40
2019-03-29T01:06:20.571Z,15.10
2019-03-29T01:11:54.058Z,12.47
2019-03-29T01:14:39.748Z,10.63
2019-03-29T01:17:25.839Z,12.82
2019-03-29T01:20:11.705Z,12.88
2019-03-29T01:22:59.082Z,12.35
2019-03-29T01:25:45.417Z,10.98
2019-03-29T01:28:31.075Z,10.80
2019-03-29T01:31:16.947Z,12.58
2019-03-29T01:34:02.741Z,15.63
2019-03-29T01:36:48.672Z,14.07
2019-03-29T01:42:20.096Z,13.78
2019-03-29T01:45:06.686Z,13.38
2019-03-29T01:47:53.011Z,13.13
2019-03-29T01:50:38.889Z,13.03
2019-03-29T01:53:24.727Z,11.83
2019-03-29T01:56:10.482Z,13.68
2019-03-29T01:58:56.489Z,14.38
2019-03-29T02:01:42.390Z,13.48
2019-03-29T02:04:28.138Z,12.50
2019-03-29T02:07:13.893Z,15.75
2019-03-29T02:12:45.252Z,11.50
2019-03-29T02:15:31.135Z,11.48
2019-03-29T02:18:17.003Z,14.78
2019-03-29T02:21:02.772Z,12.55
2019-03-29T02:23:48.681Z,13.50
2019-03-29T02:26:34.923Z,13.00
2019-03-29T02:29:20.972Z,13.28
2019-03-29T02:32:06.787Z,13.25
2019-03-29T02:34:52.641Z,15.23
2019-03-29T02:37:38.789Z,16.12
2019-03-29T02:40:24.731Z,17.85
2019-03-29T02:43:11.098Z,14.35
2019-03-29T02:45:57.814Z,14.07
2019-03-29T02:48:44.687Z,16.07
2019-03-29T02:51:32.709Z,16.25
2019-03-29T02:54:18.866Z,18.02
2019-03-29T02:57:04.653Z,16.73
2019-03-29T02:59:50.653Z,18.10
2019-03-29T03:05:21.946Z,18.95
2019-03-29T03:08:07.800Z,17.27
2019-03-29T03:10:53.600Z,16.37
2019-03-29T03:13:39.409Z,15.55
2019-03-29T03:16:25.389Z,18.67
2019-03-29T03:19:11.237Z,17.62
2019-03-29T03:21:57.115Z,18.95
2019-03-29T03:24:43.074Z,17.02
2019-03-29T03:27:28.884Z,15.25
2019-03-29T03:35:47.145Z,16.12
2019-03-29T03:41:18.554Z,15.00
2019-03-29T03:44:04.444Z,16.48
2019-03-29T03:46:50.500Z,15.38
2019-03-29T03:49:36.227Z,17.52
2019-03-29T03:55:07.633Z,16.60
2019-03-29T03:57:57.451Z,17.35
2019-03-29T04:00:54.180Z,17.55
2019-03-29T04:03:40.096Z,17.52
2019-03-29T04:09:11.510Z,15.88
2019-03-29T04:11:57.564Z,15.43
2019-03-29T04:17:48.350Z,15.35
2019-03-29T04:20:34.219Z,18.15
2019-03-29T04:26:05.578Z,18.70
2019-03-29T04:29:04.030Z,17.27
2019-03-29T04:31:39.567Z,15.23
2019-03-29T04:34:25.418Z,15.95
2019-03-29T04:37:11.417Z,16.50
2019-03-29T04:40:07.096Z,15.83
2019-03-29T04:42:45.176Z,15.80
2019-03-29T04:45:31.161Z,15.68
2019-03-29T04:48:17.049Z,15.83
2019-03-29T04:51:02.944Z,17.65
2019-03-29T04:56:34.240Z,14.28
2019-03-29T04:59:20.134Z,11.03
2019-03-29T05:02:06.003Z,14.40
2019-03-29T05:04:51.824Z,13.80
2019-03-29T05:10:23.192Z,13.05
2019-03-29T05:15:54.565Z,12.60
2019-03-29T05:18:40.456Z,11.93
2019-03-29T05:24:11.848Z,14.23
2019-03-29T05:26:57.689Z,11.40
2019-03-29T05:32:28.994Z,11.15
2019-03-29T05:35:14.958Z,11.20
2019-03-29T05:40:46.164Z,12.25
2019-03-29T05:43:32.321Z,10.78
2019-03-29T05:46:18.244Z,9.65
2019-03-29T05:51:49.478Z,10.18
2019-03-29T05:54:35.364Z,11.75
2019-03-29T05:57:21.644Z,13.25
2019-03-29T06:00:08.296Z,12.25
2019-03-29T06:02:54.609Z,12.98
2019-03-29T06:05:40.453Z,11.15
2019-03-29T06:08:26.264Z,10.72
2019-03-29T06:13:57.597Z,10.90
2019-03-29T06:16:43.436Z,10.82
2019-03-29T06:19:29.545Z,10.75
2019-03-29T06:25:00.951Z,8.43
2019-03-29T06:27:46.792Z,10.08
2019-03-29T06:30:32.660Z,11.45
2019-03-29T06:36:04.014Z,10.58
2019-03-29T06:38:49.863Z,10.10
2019-03-29T06:44:21.208Z,11.45
2019-03-29T06:47:07.173Z,11.28
2019-03-29T06:49:52.998Z,11.55
2019-03-29T06:52:38.900Z,9.45
2019-03-29T06:58:10.159Z,10.20
2019-03-29T07:00:56.010Z,9.75
2019-03-29T07:03:41.844Z,9.13
2019-03-29T07:06:30.453Z,12.05
2019-03-29T07:09:15.461Z,12.33
2019-03-29T07:12:01.411Z,12.78
2019-03-29T07:14:47.202Z,12.55
2019-03-29T07:20:18.478Z,10.38
2019-03-29T07:23:04.509Z,10.60
2019-03-29T07:25:50.422Z,11.30
2019-03-29T07:28:36.372Z,14.10
2019-03-29T07:31:22.339Z,10.53
2019-03-29T07:34:08.304Z,9.55
2019-03-29T07:36:54.346Z,10.72
2019-03-29T07:39:40.733Z,12.70
2019-03-29T07:42:26.689Z,12.60
2019-03-29T07:47:57.990Z,12.35
2019-03-29T07:50:43.808Z,14.18
2019-03-29T07:56:15.265Z,12.45
2019-03-29T07:59:01.095Z,12.37
2019-03-29T08:01:47.064Z,14.00
2019-03-29T08:04:32.878Z,15.08
2019-03-29T08:10:06.260Z,14.05
2019-03-29T08:12:52.193Z,17.90
2019-03-29T08:18:23.554Z,20.40
2019-03-29T08:21:09.507Z,18.12
2019-03-29T08:23:56.290Z,19.87
2019-03-29T08:26:42.178Z,20.10
2019-03-29T08:29:31.196Z,23.35
2019-03-29T08:32:16.080Z,22.02
2019-03-29T08:35:02.996Z,23.90
2019-03-29T08:37:48.947Z,21.52
2019-03-29T08:40:34.684Z,26.57
2019-03-29T08:43:20.619Z,30.45
2019-03-29T08:48:52.074Z,28.45
2019-03-29T08:51:41.209Z,31.77
2019-03-29T08:54:26.025Z,33.73
2019-03-29T08:57:11.913Z,63.83
2019-03-29T08:59:57.678Z,68.67
2019-03-29T09:02:43.477Z,58.58
2019-03-29T09:05:29.553Z,60.28
2019-03-29T09:08:15.295Z,57.62
2019-03-29T09:11:01.201Z,61.35
2019-03-29T09:16:32.963Z,62.98
2019-03-29T09:19:21.277Z,63.75
2019-03-29T09:22:08.151Z,56.58
2019-03-29T09:24:55.754Z,62.95
2019-03-29T09:27:43.988Z,61.50
2019-03-29T09:30:32.088Z,68.75
2019-03-29T09:33:18.261Z,71.02
2019-03-29T09:36:05.113Z,64.37
2019-03-29T09:38:51.757Z,71.65
2019-03-29T09:41:37.908Z,64.77
2019-03-29T09:44:23.793Z,69.03
2019-03-29T09:47:10.729Z,66.82
2019-03-29T09:49:56.825Z,64.25
2019-03-29T09:52:45.164Z,62.95
2019-03-29T09:55:31.027Z,65.20
2019-03-29T09:58:22.405Z,64.30
2019-03-29T10:01:08.358Z,65.32
2019-03-29T10:03:54.841Z,59.85
2019-03-29T10:06:43.844Z,63.28
2019-03-29T10:09:32.659Z,64.97
2019-03-29T10:12:20.414Z,63.10
2019-03-29T10:15:08.287Z,62.03
2019-03-29T10:17:57.528Z,64.00
2019-03-29T10:20:44.529Z,64.75
2019-03-29T10:23:31.243Z,65.95
2019-03-29T10:26:19.195Z,59.00
2019-03-29T10:29:05.213Z,59.15
2019-03-29T10:34:39.067Z,62.65
2019-03-29T10:37:26.686Z,59.73
2019-03-29T10:40:13.008Z,58.70
2019-03-29T10:42:59.267Z,60.50
2019-03-29T10:45:47.634Z,58.05
2019-03-29T10:48:35.466Z,57.98
2019-03-29T10:51:24.189Z,56.55
2019-03-29T10:54:12.320Z,51.65
2019-03-29T10:57:00.504Z,49.50
2019-03-29T10:59:46.711Z,51.77
2019-03-29T11:02:32.556Z,48.33
2019-03-29T11:05:18.331Z,46.23
2019-03-29T11:08:04.470Z,45.90
2019-03-29T11:10:50.589Z,47.88
2019-03-29T11:16:22.049Z,54.10
2019-03-29T11:19:07.857Z,47.65
2019-03-29T11:24:39.185Z,47.65
2019-03-29T11:27:24.992Z,46.95
2019-03-29T11:32:56.428Z,39.50
2019-03-29T11:35:42.368Z,44.80
2019-03-29T11:38:28.235Z,42.83
2019-03-29T11:43:59.544Z,37.23
2019-03-29T11:46:45.356Z,37.00
2019-03-29T11:49:31.119Z,38.42
2019-03-29T11:52:17.242Z,38.05
2019-03-29T11:57:48.496Z,31.52
2019-03-29T12:00:35.320Z,34.13
2019-03-29T12:03:21.121Z,33.73
2019-03-29T12:06:07.588Z,35.68
2019-03-29T12:08:56.917Z,28.80
2019-03-29T12:11:41.553Z,29.57
2019-03-29T12:17:12.853Z,28.15
2019-03-29T12:19:58.669Z,27.60
2019-03-29T12:22:44.765Z,30.45
2019-03-29T12:28:16.082Z,31.57
2019-03-29T12:33:47.436Z,30.15
2019-03-29T12:36:33.386Z,35.48
2019-03-29T12:39:19.558Z,30.92
2019-03-29T12:44:50.916Z,24.72
2019-03-29T12:47:36.969Z,28.83
2019-03-29T12:50:22.937Z,33.00
2019-03-29T12:55:54.173Z,28.65
2019-03-29T13:01:38.469Z,31.17
2019-03-29T13:04:13.509Z,26.05
2019-03-29T13:06:59.401Z,31.25
2019-03-29T13:12:30.661Z,25.17
2019-03-29T13:15:16.333Z,28.05
2019-03-29T13:20:48.185Z,27.87
2019-03-29T13:23:34.193Z,29.32
2019-03-29T13:26:20.142Z,27.58
2019-03-29T13:31:52.999Z,27.25
2019-03-29T13:34:41.657Z,25.37
2019-03-29T13:37:27.995Z,26.42
2019-03-29T13:40:15.040Z,26.40
2019-03-29T13:43:01.433Z,23.07
2019-03-29T13:45:47.359Z,22.30
2019-03-29T13:48:35.163Z,23.25
2019-03-29T13:51:24.993Z,24.12
2019-03-29T13:54:12.899Z,26.00
2019-03-29T13:57:03.035Z,25.52
2019-03-29T13:59:49.580Z,22.05
2019-03-29T14:02:39.146Z,20.60
2019-03-29T14:05:27.534Z,29.80
2019-03-29T14:08:14.138Z,21.80
2019-03-29T14:11:03.879Z,20.95
2019-03-29T14:13:51.527Z,21.68
2019-03-29T14:16:38.040Z,26.05
2019-03-29T14:19:25.941Z,24.87
2019-03-29T14:22:15.647Z,30.92
2019-03-29T14:25:01.924Z,23.85
2019-03-29T14:27:49.132Z,19.32
2019-03-29T14:30:39.244Z,22.13
2019-03-29T14:33:27.804Z,20.75
2019-03-29T14:36:13.930Z,23.30
2019-03-29T14:39:01.040Z,22.82
2019-03-29T14:41:47.488Z,22.40
2019-03-29T14:47:19.349Z,25.17
2019-03-29T14:50:05.986Z,26.65
2019-03-29T14:52:51.883Z,24.85
2019-03-29T14:55:37.764Z,26.93
2019-03-29T15:01:08.927Z,27.27
2019-03-29T15:03:55.012Z,26.68
2019-03-29T15:06:40.830Z,45.23
2019-03-29T15:09:26.801Z,41.10
2019-03-29T15:15:05.933Z,39.63
2019-03-29T15:17:45.942Z,38.42
2019-03-29T15:20:31.740Z,41.50
2019-03-29T15:23:17.736Z,39.48
2019-03-29T15:26:03.756Z,33.30
2019-03-29T15:31:35.200Z,34.00
2019-03-29T15:34:21.023Z,31.07
2019-03-29T15:39:52.392Z,29.02
2019-03-29T15:48:09.526Z,30.12
2019-03-29T15:53:41.012Z,30.75
2019-03-29T15:56:26.692Z,29.30
2019-03-29T16:01:57.826Z,29.52
2019-03-29T16:07:29.155Z,31.23
2019-03-29T16:13:00.457Z,27.07
2019-03-29T16:15:46.417Z,33.13
2019-03-29T16:21:17.582Z,30.72
2019-03-29T16:24:03.633Z,30.60
2019-03-29T16:26:50.067Z,31.35
2019-03-29T16:29:36.321Z,27.62
2019-03-29T16:35:07.686Z,29.70
2019-03-29T16:37:57.491Z,28.60
2019-03-29T16:40:42.430Z,32.58
2019-03-29T16:46:14.027Z,33.50
2019-03-29T16:49:00.093Z,32.05
2019-03-29T16:51:45.996Z,34.70
2019-03-29T16:54:31.820Z,29.32
2019-03-29T17:00:04.501Z,32.65
2019-03-29T17:02:50.762Z,28.98
2019-03-29T17:08:21.864Z,28.10
2019-03-29T17:13:53.402Z,30.72
2019-03-29T17:16:39.158Z,32.17
2019-03-29T17:22:10.776Z,29.07
2019-03-29T17:24:57.464Z,31.60
2019-03-29T17:27:43.499Z,31.97
2019-03-29T17:30:37.601Z,29.23
2019-03-29T17:33:23.330Z,32.67
2019-03-29T17:38:54.409Z,33.65
2019-03-29T17:41:40.235Z,35.10
2019-03-29T17:47:11.626Z,35.78
2019-03-29T17:49:57.441Z,33.13
2019-03-29T17:55:31.616Z,34.38
2019-03-29T17:58:16.661Z,37.17
2019-03-29T18:03:47.937Z,35.73
2019-03-29T18:06:33.705Z,38.45
2019-03-29T18:09:19.779Z,39.25
2019-03-29T18:12:05.504Z,37.70
2019-03-29T18:17:36.854Z,37.75
2019-03-29T18:20:23.018Z,35.23
2019-03-29T18:23:09.160Z,37.45
2019-03-29T18:25:54.872Z,37.88
2019-03-29T18:28:40.757Z,38.33
2019-03-29T18:31:26.738Z,41.05
2019-03-29T18:34:12.602Z,39.73
2019-03-29T18:36:58.561Z,40.40
2019-03-29T18:39:44.408Z,35.28
2019-03-29T18:42:30.264Z,38.73
2019-03-29T18:45:16.264Z,43.42
2019-03-29T18:48:02.092Z,37.28
2019-03-29T18:50:47.964Z,38.50
2019-03-29T18:53:33.758Z,37.98
2019-03-29T18:56:19.649Z,41.42
2019-03-29T18:59:05.777Z,41.40
2019-03-29T19:01:51.536Z,41.42
2019-03-29T19:04:37.432Z,44.65
2019-03-29T19:07:27.579Z,42.30
2019-03-29T19:10:13.317Z,44.75
2019-03-29T19:12:59.165Z,49.18
2019-03-29T19:18:30.675Z,42.08
2019-03-29T19:24:01.945Z,41.95
2019-03-29T19:26:47.688Z,43.10
2019-03-29T19:32:19.168Z,41.42
2019-03-29T19:35:05.224Z,47.13
2019-03-29T19:37:50.971Z,46.88
2019-03-29T19:40:36.904Z,43.15
2019-03-29T19:43:22.880Z,47.10
2019-03-29T19:46:08.666Z,40.58
2019-03-29T19:48:54.565Z,41.77
2019-03-29T19:54:25.972Z,47.67
2019-03-29T19:57:11.750Z,45.92
2019-03-29T19:59:57.556Z,44.63
2019-03-29T20:02:43.479Z,48.63
2019-03-29T20:05:29.460Z,47.03
2019-03-29T20:08:15.476Z,48.52
2019-03-29T20:11:01.306Z,52.83
2019-03-29T20:13:47.340Z,48.40
2019-03-29T20:16:33.112Z,52.00
2019-03-29T20:19:20.223Z,49.33
2019-03-29T20:22:06.325Z,54.40
2019-03-29T20:24:52.294Z,46.77
2019-03-29T20:30:24.237Z,50.35
2019-03-29T20:33:13.182Z,55.50
2019-03-29T20:35:58.172Z,53.85
2019-03-29T20:38:44.126Z,52.23
2019-03-29T20:41:29.929Z,50.78
2019-03-29T20:44:15.887Z,56.08
2019-03-29T20:47:01.800Z,57.70
2019-03-29T20:49:47.793Z,55.35
2019-03-29T20:52:33.620Z,52.43
2019-03-29T20:55:19.468Z,54.38
2019-03-29T21:00:50.969Z,56.00
2019-03-29T21:03:36.937Z,54.60
2019-03-29T21:09:08.282Z,52.00
2019-03-29T21:14:39.729Z,51.15
2019-03-29T21:17:25.606Z,56.95
2019-03-29T21:22:56.967Z,52.27
2019-03-29T21:25:46.161Z,55.28
2019-03-29T21:28:34.932Z,58.50
2019-03-29T21:31:21.308Z,57.38
2019-03-29T21:34:07.860Z,56.33
2019-03-29T21:36:54.334Z,62.53
2019-03-29T21:39:42.211Z,60.23
2019-03-29T21:42:29.442Z,56.42
2019-03-29T21:45:27.987Z,61.45
2019-03-29T21:48:27.225Z,59.98
2019-03-29T21:50:53.231Z,56.75
2019-03-29T21:53:39.007Z,57.03
2019-03-29T21:56:25.186Z,56.88
2019-03-29T21:59:11.848Z,60.78
2019-03-29T22:01:58.112Z,62.25
2019-03-29T22:07:29.422Z,55.50
2019-03-29T22:10:15.300Z,58.33
2019-03-29T22:13:03.489Z,61.37
2019-03-29T22:15:49.824Z,61.83
2019-03-29T22:18:38.413Z,56.05
2019-03-29T22:21:27.929Z,56.33
2019-03-29T22:24:17.286Z,54.67
2019-03-29T22:27:04.751Z,56.98
2019-03-29T22:29:52.378Z,62.03
2019-03-29T22:32:40.288Z,59.27
2019-03-29T22:35:26.326Z,60.78
2019-03-29T22:38:12.199Z,61.18
2019-03-29T22:40:58.628Z,60.38
2019-03-29T22:43:45.060Z,57.35
2019-03-29T22:46:31.200Z,59.40
2019-03-29T22:49:17.592Z,58.15
2019-03-29T22:52:03.244Z,55.33
2019-03-29T22:54:49.135Z,63.17
2019-03-29T22:57:35.068Z,67.65
2019-03-29T23:00:25.218Z,56.02
2019-03-29T23:03:10.795Z,63.08
2019-03-29T23:08:42.100Z,58.08
2019-03-29T23:11:27.865Z,59.10
2019-03-29T23:14:13.581Z,60.52
2019-03-29T23:16:59.763Z,56.25
2019-03-29T23:19:46.015Z,57.80
2019-03-29T23:22:31.956Z,59.90
2019-03-29T23:25:17.694Z,56.08
2019-03-29T23:28:03.752Z,61.83
2019-03-29T23:30:49.727Z,56.68
2019-03-29T23:33:35.540Z,61.85
2019-03-29T23:36:21.558Z,56.28
2019-03-29T23:39:07.299Z,60.10
2019-03-29T23:44:38.740Z,58.35
2019-03-29T23:47:24.569Z,59.42
2019-03-29T23:50:10.503Z,61.18
2019-03-29T23:52:56.418Z,59.90
2019-03-29T23:55:42.437Z,58.45
2019-03-29T23:58:28.476Z,60.00
